sensor_id;sensor_type;location;lat;lon;timestamp;temperature;humidity
57753;DHT22;43583;53.132;6.574;2023-06-22T00:01:27;16.20;99.90
57753;DHT22;43583;53.132;6.574;2023-06-22T00:03:53;16.20;99.90
57753;DHT22;43583;53.132;6.574;2023-06-22T00:06:18;16.10;99.90
57753;DHT22;43583;53.132;6.574;2023-06-22T00:08:44;16.00;99.90
57753;DHT22;43583;53.132;6.574;2023-06-22T00:11:10;16.00;99.90
57753;DHT22;43583;53.132;6.574;2023-06-22T00:13:35;16.00;99.90
57753;DHT22;43583;53.132;6.574;2023-06-22T00:16:01;15.90;99.90
57753;DHT22;43583;53.132;6.574;2023-06-22T00:18:27;15.80;99.90
57753;DHT22;43583;53.132;6.574;2023-06-22T00:20:54;15.80;99.90
57753;DHT22;43583;53.132;6.574;2023-06-22T00:23:23;15.80;99.90
57753;DHT22;43583;53.132;6.574;2023-06-22T00:25:49;15.70;99.90
57753;DHT22;43583;53.132;6.574;2023-06-22T00:28:15;15.70;99.90
57753;DHT22;43583;53.132;6.574;2023-06-22T00:30:41;15.70;99.90
57753;DHT22;43583;53.132;6.574;2023-06-22T00:33:06;15.60;99.90
57753;DHT22;43583;53.132;6.574;2023-06-22T00:35:33;15.60;99.90
57753;DHT22;43583;53.132;6.574;2023-06-22T00:38:00;15.50;99.90
57753;DHT22;43583;53.132;6.574;2023-06-22T00:40:33;15.50;99.90
57753;DHT22;43583;53.132;6.574;2023-06-22T00:42:59;15.50;99.90
57753;DHT22;43583;53.132;6.574;2023-06-22T00:45:25;15.50;99.90
57753;DHT22;43583;53.132;6.574;2023-06-22T00:47:53;15.40;99.90
57753;DHT22;43583;53.132;6.574;2023-06-22T00:50:21;15.40;99.90
57753;DHT22;43583;53.132;6.574;2023-06-22T00:52:52;15.50;99.90
57753;DHT22;43583;53.132;6.574;2023-06-22T00:55:22;15.40;99.90
57753;DHT22;43583;53.132;6.574;2023-06-22T00:57:48;15.30;99.90
57753;DHT22;43583;53.132;6.574;2023-06-22T01:00:15;15.30;99.90
57753;DHT22;43583;53.132;6.574;2023-06-22T01:02:46;15.20;99.90
57753;DHT22;43583;53.132;6.574;2023-06-22T01:05:13;15.20;99.90
57753;DHT22;43583;53.132;6.574;2023-06-22T01:07:55;15.20;99.90
57753;DHT22;43583;53.132;6.574;2023-06-22T01:10:43;15.10;99.90
57753;DHT22;43583;53.132;6.574;2023-06-22T01:13:16;15.10;99.90
57753;DHT22;43583;53.132;6.574;2023-06-22T01:15:46;15.10;99.90
57753;DHT22;43583;53.132;6.574;2023-06-22T01:18:14;15.00;99.90
57753;DHT22;43583;53.132;6.574;2023-06-22T01:20:43;15.00;99.90
57753;DHT22;43583;53.132;6.574;2023-06-22T01:23:32;14.90;99.90
57753;DHT22;43583;53.132;6.574;2023-06-22T01:26:05;15.00;99.90
57753;DHT22;43583;53.132;6.574;2023-06-22T01:28:50;14.90;99.90
57753;DHT22;43583;53.132;6.574;2023-06-22T01:31:20;14.90;99.90
57753;DHT22;43583;53.132;6.574;2023-06-22T01:33:51;14.90;99.90
57753;DHT22;43583;53.132;6.574;2023-06-22T01:36:18;14.90;99.90
57753;DHT22;43583;53.132;6.574;2023-06-22T01:38:44;14.90;99.90
57753;DHT22;43583;53.132;6.574;2023-06-22T01:41:11;14.80;99.90
57753;DHT22;43583;53.132;6.574;2023-06-22T01:43:37;14.80;99.90
57753;DHT22;43583;53.132;6.574;2023-06-22T01:46:03;14.80;99.90
57753;DHT22;43583;53.132;6.574;2023-06-22T01:48:30;14.80;99.90
57753;DHT22;43583;53.132;6.574;2023-06-22T01:50:56;14.80;99.90
57753;DHT22;43583;53.132;6.574;2023-06-22T01:53:22;14.80;99.90
57753;DHT22;43583;53.132;6.574;2023-06-22T01:55:48;14.80;99.90
57753;DHT22;43583;53.132;6.574;2023-06-22T01:58:14;14.80;99.90
57753;DHT22;43583;53.132;6.574;2023-06-22T02:00:46;14.70;99.90
57753;DHT22;43583;53.132;6.574;2023-06-22T02:03:21;14.80;99.90
57753;DHT22;43583;53.132;6.574;2023-06-22T02:05:50;14.70;99.90
57753;DHT22;43583;53.132;6.574;2023-06-22T02:08:23;14.70;99.90
57753;DHT22;43583;53.132;6.574;2023-06-22T02:10:51;14.70;99.90
57753;DHT22;43583;53.132;6.574;2023-06-22T02:13:18;14.70;99.90
57753;DHT22;43583;53.132;6.574;2023-06-22T02:15:45;14.70;99.90
57753;DHT22;43583;53.132;6.574;2023-06-22T02:18:11;14.70;99.90
57753;DHT22;43583;53.132;6.574;2023-06-22T02:20:38;14.60;99.90
57753;DHT22;43583;53.132;6.574;2023-06-22T02:23:03;14.70;99.90
57753;DHT22;43583;53.132;6.574;2023-06-22T02:25:29;14.70;99.90
57753;DHT22;43583;53.132;6.574;2023-06-22T02:27:55;14.70;99.90
57753;DHT22;43583;53.132;6.574;2023-06-22T02:30:20;14.70;99.90
57753;DHT22;43583;53.132;6.574;2023-06-22T02:32:46;14.70;99.90
57753;DHT22;43583;53.132;6.574;2023-06-22T02:35:12;14.80;99.90
57753;DHT22;43583;53.132;6.574;2023-06-22T02:37:38;14.80;99.90
57753;DHT22;43583;53.132;6.574;2023-06-22T02:40:07;14.80;99.90
57753;DHT22;43583;53.132;6.574;2023-06-22T02:42:35;14.80;99.90
57753;DHT22;43583;53.132;6.574;2023-06-22T02:45:00;14.80;99.90
57753;DHT22;43583;53.132;6.574;2023-06-22T02:47:26;14.80;99.90
57753;DHT22;43583;53.132;6.574;2023-06-22T02:49:52;14.70;99.90
57753;DHT22;43583;53.132;6.574;2023-06-22T02:52:17;14.70;99.90
57753;DHT22;43583;53.132;6.574;2023-06-22T02:54:43;14.70;99.90
57753;DHT22;43583;53.132;6.574;2023-06-22T02:57:10;14.70;99.90
57753;DHT22;43583;53.132;6.574;2023-06-22T02:59:41;14.70;99.90
57753;DHT22;43583;53.132;6.574;2023-06-22T03:02:08;14.60;99.90
57753;DHT22;43583;53.132;6.574;2023-06-22T03:04:34;14.60;99.90
57753;DHT22;43583;53.132;6.574;2023-06-22T03:07:00;14.60;99.90
57753;DHT22;43583;53.132;6.574;2023-06-22T03:09:30;14.50;99.90
57753;DHT22;43583;53.132;6.574;2023-06-22T03:11:55;14.40;99.90
57753;DHT22;43583;53.132;6.574;2023-06-22T03:14:21;14.40;99.90
57753;DHT22;43583;53.132;6.574;2023-06-22T03:16:47;14.30;99.90
57753;DHT22;43583;53.132;6.574;2023-06-22T03:19:13;14.40;99.90
57753;DHT22;43583;53.132;6.574;2023-06-22T03:21:39;14.30;99.90
57753;DHT22;43583;53.132;6.574;2023-06-22T03:24:06;14.30;99.90
57753;DHT22;43583;53.132;6.574;2023-06-22T03:26:31;14.30;99.90
57753;DHT22;43583;53.132;6.574;2023-06-22T03:28:57;14.30;99.90
57753;DHT22;43583;53.132;6.574;2023-06-22T03:31:23;14.30;99.90
57753;DHT22;43583;53.132;6.574;2023-06-22T03:33:49;14.30;99.90
57753;DHT22;43583;53.132;6.574;2023-06-22T03:36:16;14.20;99.90
57753;DHT22;43583;53.132;6.574;2023-06-22T03:38:45;14.30;99.90
57753;DHT22;43583;53.132;6.574;2023-06-22T03:41:11;14.30;99.90
57753;DHT22;43583;53.132;6.574;2023-06-22T03:43:37;14.40;99.90
57753;DHT22;43583;53.132;6.574;2023-06-22T03:46:02;14.40;99.90
57753;DHT22;43583;53.132;6.574;2023-06-22T03:48:28;14.40;99.90
57753;DHT22;43583;53.132;6.574;2023-06-22T03:50:53;14.50;99.90
57753;DHT22;43583;53.132;6.574;2023-06-22T03:53:19;14.60;99.90
57753;DHT22;43583;53.132;6.574;2023-06-22T03:55:49;14.60;99.90
57753;DHT22;43583;53.132;6.574;2023-06-22T03:58:16;14.70;99.90
57753;DHT22;43583;53.132;6.574;2023-06-22T04:00:45;14.80;99.90
57753;DHT22;43583;53.132;6.574;2023-06-22T04:03:11;14.90;99.90
57753;DHT22;43583;53.132;6.574;2023-06-22T04:05:38;15.10;99.90
57753;DHT22;43583;53.132;6.574;2023-06-22T04:08:04;15.20;99.90
57753;DHT22;43583;53.132;6.574;2023-06-22T04:10:30;15.40;99.90
57753;DHT22;43583;53.132;6.574;2023-06-22T04:12:55;15.60;99.90
57753;DHT22;43583;53.132;6.574;2023-06-22T04:15:21;15.90;99.90
57753;DHT22;43583;53.132;6.574;2023-06-22T04:17:47;16.10;99.90
57753;DHT22;43583;53.132;6.574;2023-06-22T04:20:12;16.30;99.90
57753;DHT22;43583;53.132;6.574;2023-06-22T04:22:38;16.40;99.90
57753;DHT22;43583;53.132;6.574;2023-06-22T04:25:05;16.60;99.90
57753;DHT22;43583;53.132;6.574;2023-06-22T04:27:31;16.70;99.90
57753;DHT22;43583;53.132;6.574;2023-06-22T04:29:57;16.80;99.90
57753;DHT22;43583;53.132;6.574;2023-06-22T04:32:25;16.90;99.90
57753;DHT22;43583;53.132;6.574;2023-06-22T04:34:51;17.10;99.90
57753;DHT22;43583;53.132;6.574;2023-06-22T04:37:17;17.20;99.90
57753;DHT22;43583;53.132;6.574;2023-06-22T04:39:43;17.50;99.90
57753;DHT22;43583;53.132;6.574;2023-06-22T04:42:09;17.70;99.90
57753;DHT22;43583;53.132;6.574;2023-06-22T04:44:34;18.00;99.90
57753;DHT22;43583;53.132;6.574;2023-06-22T04:47:01;18.10;99.90
57753;DHT22;43583;53.132;6.574;2023-06-22T04:49:29;18.40;99.90
57753;DHT22;43583;53.132;6.574;2023-06-22T04:51:59;18.70;99.90
57753;DHT22;43583;53.132;6.574;2023-06-22T04:54:25;19.00;99.90
57753;DHT22;43583;53.132;6.574;2023-06-22T04:57:05;19.40;99.90
57753;DHT22;43583;53.132;6.574;2023-06-22T04:59:37;19.80;99.90
57753;DHT22;43583;53.132;6.574;2023-06-22T05:02:05;20.30;99.90
57753;DHT22;43583;53.132;6.574;2023-06-22T05:04:31;20.90;99.90
57753;DHT22;43583;53.132;6.574;2023-06-22T05:06:58;21.50;99.90
57753;DHT22;43583;53.132;6.574;2023-06-22T05:09:24;22.10;99.90
57753;DHT22;43583;53.132;6.574;2023-06-22T05:11:52;22.60;99.90
57753;DHT22;43583;53.132;6.574;2023-06-22T05:14:18;22.80;99.90
57753;DHT22;43583;53.132;6.574;2023-06-22T05:16:44;23.10;99.90
57753;DHT22;43583;53.132;6.574;2023-06-22T05:19:10;23.10;99.90
57753;DHT22;43583;53.132;6.574;2023-06-22T05:21:36;23.10;99.90
57753;DHT22;43583;53.132;6.574;2023-06-22T05:24:02;23.20;99.90
57753;DHT22;43583;53.132;6.574;2023-06-22T05:26:33;23.40;99.90
57753;DHT22;43583;53.132;6.574;2023-06-22T05:29:00;23.90;99.90
57753;DHT22;43583;53.132;6.574;2023-06-22T05:31:26;24.40;99.90
57753;DHT22;43583;53.132;6.574;2023-06-22T05:33:53;24.70;99.90
57753;DHT22;43583;53.132;6.574;2023-06-22T05:36:19;25.20;99.90
57753;DHT22;43583;53.132;6.574;2023-06-22T05:38:47;25.50;99.90
57753;DHT22;43583;53.132;6.574;2023-06-22T05:41:13;25.90;99.90
57753;DHT22;43583;53.132;6.574;2023-06-22T05:43:39;26.10;99.90
57753;DHT22;43583;53.132;6.574;2023-06-22T05:46:05;26.30;99.90
57753;DHT22;43583;53.132;6.574;2023-06-22T05:48:30;26.40;99.90
57753;DHT22;43583;53.132;6.574;2023-06-22T05:50:56;26.40;99.90
57753;DHT22;43583;53.132;6.574;2023-06-22T05:53:22;26.30;99.90
57753;DHT22;43583;53.132;6.574;2023-06-22T05:55:48;26.30;99.90
57753;DHT22;43583;53.132;6.574;2023-06-22T05:58:14;26.20;99.90
57753;DHT22;43583;53.132;6.574;2023-06-22T06:00:40;26.00;99.90
57753;DHT22;43583;53.132;6.574;2023-06-22T06:03:07;26.00;99.90
57753;DHT22;43583;53.132;6.574;2023-06-22T06:05:34;26.10;99.90
57753;DHT22;43583;53.132;6.574;2023-06-22T06:08:05;26.20;99.90
57753;DHT22;43583;53.132;6.574;2023-06-22T06:10:31;26.50;99.90
57753;DHT22;43583;53.132;6.574;2023-06-22T06:12:57;26.70;99.90
57753;DHT22;43583;53.132;6.574;2023-06-22T06:15:23;27.00;99.90
57753;DHT22;43583;53.132;6.574;2023-06-22T06:17:52;27.30;99.90
57753;DHT22;43583;53.132;6.574;2023-06-22T06:20:19;27.40;99.90
57753;DHT22;43583;53.132;6.574;2023-06-22T06:22:46;27.70;99.90
57753;DHT22;43583;53.132;6.574;2023-06-22T06:25:12;27.90;99.90
57753;DHT22;43583;53.132;6.574;2023-06-22T06:27:49;28.00;99.90
57753;DHT22;43583;53.132;6.574;2023-06-22T06:30:16;27.40;99.90
57753;DHT22;43583;53.132;6.574;2023-06-22T06:32:43;26.90;99.90
57753;DHT22;43583;53.132;6.574;2023-06-22T06:35:11;26.90;99.90
57753;DHT22;43583;53.132;6.574;2023-06-22T06:37:39;27.10;99.90
57753;DHT22;43583;53.132;6.574;2023-06-22T06:40:06;27.50;99.90
57753;DHT22;43583;53.132;6.574;2023-06-22T06:42:42;27.90;99.90
57753;DHT22;43583;53.132;6.574;2023-06-22T06:45:16;27.80;99.90
57753;DHT22;43583;53.132;6.574;2023-06-22T06:47:41;27.90;99.90
57753;DHT22;43583;53.132;6.574;2023-06-22T06:50:07;28.00;99.90
57753;DHT22;43583;53.132;6.574;2023-06-22T06:52:33;27.80;99.90
57753;DHT22;43583;53.132;6.574;2023-06-22T06:54:59;27.80;99.90
57753;DHT22;43583;53.132;6.574;2023-06-22T06:57:25;27.80;99.90
57753;DHT22;43583;53.132;6.574;2023-06-22T06:59:55;28.00;99.90
57753;DHT22;43583;53.132;6.574;2023-06-22T07:02:22;28.10;99.90
57753;DHT22;43583;53.132;6.574;2023-06-22T07:04:47;28.00;99.90
57753;DHT22;43583;53.132;6.574;2023-06-22T07:07:14;27.60;99.90
57753;DHT22;43583;53.132;6.574;2023-06-22T07:09:39;27.50;99.90
57753;DHT22;43583;53.132;6.574;2023-06-22T07:12:05;27.50;99.90
57753;DHT22;43583;53.132;6.574;2023-06-22T07:14:31;27.70;99.90
57753;DHT22;43583;53.132;6.574;2023-06-22T07:16:57;27.50;99.90
57753;DHT22;43583;53.132;6.574;2023-06-22T07:19:27;27.40;99.90
57753;DHT22;43583;53.132;6.574;2023-06-22T07:21:56;27.80;99.90
57753;DHT22;43583;53.132;6.574;2023-06-22T07:24:24;27.80;99.90
57753;DHT22;43583;53.132;6.574;2023-06-22T07:26:56;27.80;99.90
57753;DHT22;43583;53.132;6.574;2023-06-22T07:29:24;28.10;99.90
57753;DHT22;43583;53.132;6.574;2023-06-22T07:31:50;28.30;99.90
57753;DHT22;43583;53.132;6.574;2023-06-22T07:34:22;28.50;99.90
57753;DHT22;43583;53.132;6.574;2023-06-22T07:36:47;28.70;99.40
57753;DHT22;43583;53.132;6.574;2023-06-22T07:39:13;28.60;98.90
57753;DHT22;43583;53.132;6.574;2023-06-22T07:41:40;28.80;98.80
57753;DHT22;43583;53.132;6.574;2023-06-22T07:44:14;28.70;98.90
57753;DHT22;43583;53.132;6.574;2023-06-22T07:46:40;28.60;98.80
57753;DHT22;43583;53.132;6.574;2023-06-22T07:49:06;28.60;98.20
57753;DHT22;43583;53.132;6.574;2023-06-22T07:51:33;28.60;97.50
57753;DHT22;43583;53.132;6.574;2023-06-22T07:53:59;28.70;97.70
57753;DHT22;43583;53.132;6.574;2023-06-22T07:56:24;28.70;97.50
57753;DHT22;43583;53.132;6.574;2023-06-22T07:58:50;28.80;97.40
57753;DHT22;43583;53.132;6.574;2023-06-22T08:01:16;29.10;97.50
57753;DHT22;43583;53.132;6.574;2023-06-22T08:03:42;29.40;97.60
57753;DHT22;43583;53.132;6.574;2023-06-22T08:06:08;29.90;96.70
57753;DHT22;43583;53.132;6.574;2023-06-22T08:08:35;30.10;95.80
57753;DHT22;43583;53.132;6.574;2023-06-22T08:14:42;30.00;94.10
57753;DHT22;43583;53.132;6.574;2023-06-22T08:17:12;29.50;94.70
57753;DHT22;43583;53.132;6.574;2023-06-22T08:19:37;29.60;94.20
57753;DHT22;43583;53.132;6.574;2023-06-22T08:22:03;29.40;94.60
57753;DHT22;43583;53.132;6.574;2023-06-22T08:24:29;29.50;95.00
57753;DHT22;43583;53.132;6.574;2023-06-22T08:26:55;29.70;94.30
57753;DHT22;43583;53.132;6.574;2023-06-22T08:29:21;29.80;93.90
57753;DHT22;43583;53.132;6.574;2023-06-22T08:31:47;29.70;94.20
57753;DHT22;43583;53.132;6.574;2023-06-22T08:34:12;29.60;93.70
57753;DHT22;43583;53.132;6.574;2023-06-22T08:36:38;29.40;93.30
57753;DHT22;43583;53.132;6.574;2023-06-22T08:39:07;29.30;93.60
57753;DHT22;43583;53.132;6.574;2023-06-22T08:41:33;29.00;93.90
57753;DHT22;43583;53.132;6.574;2023-06-22T08:43:59;29.10;93.60
57753;DHT22;43583;53.132;6.574;2023-06-22T08:46:24;29.20;93.80
57753;DHT22;43583;53.132;6.574;2023-06-22T08:48:56;29.30;93.90
57753;DHT22;43583;53.132;6.574;2023-06-22T08:51:23;29.30;94.30
57753;DHT22;43583;53.132;6.574;2023-06-22T08:53:49;29.40;94.40
57753;DHT22;43583;53.132;6.574;2023-06-22T08:56:14;29.50;94.20
57753;DHT22;43583;53.132;6.574;2023-06-22T08:58:40;29.70;94.30
57753;DHT22;43583;53.132;6.574;2023-06-22T09:01:05;29.60;93.90
57753;DHT22;43583;53.132;6.574;2023-06-22T09:03:31;29.40;93.40
57753;DHT22;43583;53.132;6.574;2023-06-22T09:05:58;29.20;93.90
57753;DHT22;43583;53.132;6.574;2023-06-22T09:08:24;29.20;94.50
57753;DHT22;43583;53.132;6.574;2023-06-22T09:10:49;29.00;94.40
57753;DHT22;43583;53.132;6.574;2023-06-22T09:13:15;29.00;94.40
57753;DHT22;43583;53.132;6.574;2023-06-22T09:15:40;28.70;94.30
57753;DHT22;43583;53.132;6.574;2023-06-22T09:18:06;28.70;95.70
57753;DHT22;43583;53.132;6.574;2023-06-22T09:20:31;28.40;95.60
57753;DHT22;43583;53.132;6.574;2023-06-22T09:22:57;28.20;95.30
57753;DHT22;43583;53.132;6.574;2023-06-22T09:25:23;28.10;96.10
57753;DHT22;43583;53.132;6.574;2023-06-22T09:27:48;27.90;96.10
57753;DHT22;43583;53.132;6.574;2023-06-22T09:30:14;27.90;96.10
57753;DHT22;43583;53.132;6.574;2023-06-22T09:32:39;27.80;96.80
57753;DHT22;43583;53.132;6.574;2023-06-22T09:35:06;27.80;96.90
57753;DHT22;43583;53.132;6.574;2023-06-22T09:37:32;27.50;96.80
57753;DHT22;43583;53.132;6.574;2023-06-22T09:39:57;27.20;97.50
57753;DHT22;43583;53.132;6.574;2023-06-22T09:42:23;27.10;98.10
57753;DHT22;43583;53.132;6.574;2023-06-22T09:44:48;27.10;98.10
57753;DHT22;43583;53.132;6.574;2023-06-22T09:47:14;27.10;98.20
57753;DHT22;43583;53.132;6.574;2023-06-22T09:49:39;26.50;98.30
57753;DHT22;43583;53.132;6.574;2023-06-22T09:52:05;26.50;99.10
57753;DHT22;43583;53.132;6.574;2023-06-22T09:54:31;26.50;99.50
57753;DHT22;43583;53.132;6.574;2023-06-22T09:56:57;26.80;99.80
57753;DHT22;43583;53.132;6.574;2023-06-22T09:59:22;26.80;99.40
57753;DHT22;43583;53.132;6.574;2023-06-22T10:01:48;26.90;99.10
57753;DHT22;43583;53.132;6.574;2023-06-22T10:04:13;27.10;98.70
57753;DHT22;43583;53.132;6.574;2023-06-22T10:06:39;27.00;99.10
57753;DHT22;43583;53.132;6.574;2023-06-22T10:09:06;27.00;99.30
57753;DHT22;43583;53.132;6.574;2023-06-22T10:11:32;27.00;99.20
57753;DHT22;43583;53.132;6.574;2023-06-22T10:14:00;27.20;99.30
57753;DHT22;43583;53.132;6.574;2023-06-22T10:16:30;27.50;99.50
57753;DHT22;43583;53.132;6.574;2023-06-22T10:18:56;27.40;98.40
57753;DHT22;43583;53.132;6.574;2023-06-22T10:21:22;27.00;98.90
57753;DHT22;43583;53.132;6.574;2023-06-22T10:23:47;26.70;99.00
57753;DHT22;43583;53.132;6.574;2023-06-22T10:26:13;26.70;99.90
57753;DHT22;43583;53.132;6.574;2023-06-22T10:28:38;27.00;99.90
57753;DHT22;43583;53.132;6.574;2023-06-22T10:31:04;27.20;99.50
57753;DHT22;43583;53.132;6.574;2023-06-22T10:33:29;27.30;99.50
57753;DHT22;43583;53.132;6.574;2023-06-22T10:35:55;27.60;99.90
57753;DHT22;43583;53.132;6.574;2023-06-22T10:38:20;27.70;99.80
57753;DHT22;43583;53.132;6.574;2023-06-22T10:40:46;27.80;99.20
57753;DHT22;43583;53.132;6.574;2023-06-22T10:43:12;27.80;99.00
57753;DHT22;43583;53.132;6.574;2023-06-22T10:45:37;27.70;98.60
57753;DHT22;43583;53.132;6.574;2023-06-22T10:48:03;27.70;98.10
57753;DHT22;43583;53.132;6.574;2023-06-22T10:50:29;27.60;98.60
57753;DHT22;43583;53.132;6.574;2023-06-22T10:52:55;27.80;98.80
57753;DHT22;43583;53.132;6.574;2023-06-22T10:55:20;27.70;98.30
57753;DHT22;43583;53.132;6.574;2023-06-22T10:57:46;27.80;98.50
57753;DHT22;43583;53.132;6.574;2023-06-22T11:00:14;27.70;98.70
57753;DHT22;43583;53.132;6.574;2023-06-22T11:02:40;27.70;98.70
57753;DHT22;43583;53.132;6.574;2023-06-22T11:05:06;27.50;98.50
57753;DHT22;43583;53.132;6.574;2023-06-22T11:07:31;27.10;98.40
57753;DHT22;43583;53.132;6.574;2023-06-22T11:09:58;27.00;98.50
57753;DHT22;43583;53.132;6.574;2023-06-22T11:12:23;27.20;98.90
57753;DHT22;43583;53.132;6.574;2023-06-22T11:14:49;27.10;98.80
57753;DHT22;43583;53.132;6.574;2023-06-22T11:17:18;27.10;98.20
57753;DHT22;43583;53.132;6.574;2023-06-22T11:19:44;27.40;99.20
57753;DHT22;43583;53.132;6.574;2023-06-22T11:22:10;27.60;99.30
57753;DHT22;43583;53.132;6.574;2023-06-22T11:24:35;27.50;99.10
57753;DHT22;43583;53.132;6.574;2023-06-22T11:27:01;27.50;98.30
57753;DHT22;43583;53.132;6.574;2023-06-22T11:29:26;27.30;98.10
57753;DHT22;43583;53.132;6.574;2023-06-22T11:31:52;27.30;98.20
57753;DHT22;43583;53.132;6.574;2023-06-22T11:34:18;27.20;98.70
57753;DHT22;43583;53.132;6.574;2023-06-22T11:36:44;27.10;99.00
57753;DHT22;43583;53.132;6.574;2023-06-22T11:39:10;27.10;99.30
57753;DHT22;43583;53.132;6.574;2023-06-22T11:41:36;27.20;98.80
57753;DHT22;43583;53.132;6.574;2023-06-22T11:44:01;27.30;98.90
57753;DHT22;43583;53.132;6.574;2023-06-22T11:46:29;27.20;98.80
57753;DHT22;43583;53.132;6.574;2023-06-22T11:48:55;27.00;98.30
57753;DHT22;43583;53.132;6.574;2023-06-22T11:51:21;26.90;99.00
57753;DHT22;43583;53.132;6.574;2023-06-22T11:53:46;27.00;99.20
57753;DHT22;43583;53.132;6.574;2023-06-22T11:56:12;27.00;99.10
57753;DHT22;43583;53.132;6.574;2023-06-22T11:58:37;27.00;98.70
57753;DHT22;43583;53.132;6.574;2023-06-22T12:01:03;27.00;98.90
57753;DHT22;43583;53.132;6.574;2023-06-22T12:03:28;27.10;98.90
57753;DHT22;43583;53.132;6.574;2023-06-22T12:05:55;27.20;99.50
57753;DHT22;43583;53.132;6.574;2023-06-22T12:08:21;27.40;99.50
57753;DHT22;43583;53.132;6.574;2023-06-22T12:10:47;27.40;99.40
57753;DHT22;43583;53.132;6.574;2023-06-22T12:13:12;27.20;99.00
57753;DHT22;43583;53.132;6.574;2023-06-22T12:15:38;27.20;98.60
57753;DHT22;43583;53.132;6.574;2023-06-22T12:18:04;27.10;98.50
57753;DHT22;43583;53.132;6.574;2023-06-22T12:20:29;27.00;99.00
57753;DHT22;43583;53.132;6.574;2023-06-22T12:22:55;27.00;98.90
57753;DHT22;43583;53.132;6.574;2023-06-22T12:25:23;26.90;99.20
57753;DHT22;43583;53.132;6.574;2023-06-22T12:27:49;26.80;99.90
57753;DHT22;43583;53.132;6.574;2023-06-22T12:30:16;26.80;99.90
57753;DHT22;43583;53.132;6.574;2023-06-22T12:32:41;26.70;99.90
57753;DHT22;43583;53.132;6.574;2023-06-22T12:35:07;26.60;99.90
57753;DHT22;43583;53.132;6.574;2023-06-22T12:37:37;26.50;99.90
57753;DHT22;43583;53.132;6.574;2023-06-22T12:40:03;26.40;99.90
57753;DHT22;43583;53.132;6.574;2023-06-22T12:42:29;26.40;99.90
57753;DHT22;43583;53.132;6.574;2023-06-22T12:44:54;26.30;99.90
57753;DHT22;43583;53.132;6.574;2023-06-22T12:47:20;26.30;99.90
57753;DHT22;43583;53.132;6.574;2023-06-22T12:49:45;26.40;99.90
57753;DHT22;43583;53.132;6.574;2023-06-22T12:52:11;26.40;99.90
57753;DHT22;43583;53.132;6.574;2023-06-22T12:54:36;26.50;99.90
57753;DHT22;43583;53.132;6.574;2023-06-22T12:57:02;26.50;99.90
57753;DHT22;43583;53.132;6.574;2023-06-22T12:59:28;26.50;99.90
57753;DHT22;43583;53.132;6.574;2023-06-22T13:01:53;26.50;99.90
57753;DHT22;43583;53.132;6.574;2023-06-22T13:04:19;26.50;99.90
57753;DHT22;43583;53.132;6.574;2023-06-22T13:06:45;26.30;99.90
57753;DHT22;43583;53.132;6.574;2023-06-22T13:09:13;26.30;99.90
57753;DHT22;43583;53.132;6.574;2023-06-22T13:11:39;26.30;99.90
57753;DHT22;43583;53.132;6.574;2023-06-22T13:14:05;26.30;99.90
57753;DHT22;43583;53.132;6.574;2023-06-22T13:16:30;26.20;99.90
57753;DHT22;43583;53.132;6.574;2023-06-22T13:18:56;26.20;99.90
57753;DHT22;43583;53.132;6.574;2023-06-22T13:21:21;26.20;99.90
57753;DHT22;43583;53.132;6.574;2023-06-22T13:23:47;26.00;99.90
57753;DHT22;43583;53.132;6.574;2023-06-22T13:26:13;25.90;99.90
57753;DHT22;43583;53.132;6.574;2023-06-22T13:28:38;25.80;99.90
57753;DHT22;43583;53.132;6.574;2023-06-22T13:31:04;25.70;99.90
57753;DHT22;43583;53.132;6.574;2023-06-22T13:33:29;25.60;99.90
57753;DHT22;43583;53.132;6.574;2023-06-22T13:35:55;25.50;99.90
57753;DHT22;43583;53.132;6.574;2023-06-22T13:38:20;25.40;99.90
57753;DHT22;43583;53.132;6.574;2023-06-22T13:40:47;25.30;99.90
57753;DHT22;43583;53.132;6.574;2023-06-22T13:43:13;25.10;99.90
57753;DHT22;43583;53.132;6.574;2023-06-22T13:45:39;25.00;99.90
57753;DHT22;43583;53.132;6.574;2023-06-22T13:48:04;24.90;99.90
57753;DHT22;43583;53.132;6.574;2023-06-22T13:50:30;24.90;99.90
57753;DHT22;43583;53.132;6.574;2023-06-22T13:52:55;24.80;99.90
57753;DHT22;43583;53.132;6.574;2023-06-22T13:55:22;24.70;99.90
57753;DHT22;43583;53.132;6.574;2023-06-22T13:57:48;24.70;99.90
57753;DHT22;43583;53.132;6.574;2023-06-22T14:00:14;24.60;99.90
57753;DHT22;43583;53.132;6.574;2023-06-22T14:02:40;24.60;99.90
57753;DHT22;43583;53.132;6.574;2023-06-22T14:05:07;24.50;99.90
57753;DHT22;43583;53.132;6.574;2023-06-22T14:07:32;24.40;99.90
57753;DHT22;43583;53.132;6.574;2023-06-22T14:09:58;24.40;99.90
57753;DHT22;43583;53.132;6.574;2023-06-22T14:12:24;24.20;99.90
57753;DHT22;43583;53.132;6.574;2023-06-22T14:14:49;24.20;99.90
57753;DHT22;43583;53.132;6.574;2023-06-22T14:17:15;24.00;99.90
57753;DHT22;43583;53.132;6.574;2023-06-22T14:19:41;24.10;99.90
57753;DHT22;43583;53.132;6.574;2023-06-22T14:22:06;24.00;99.90
57753;DHT22;43583;53.132;6.574;2023-06-22T14:24:32;24.00;99.90
57753;DHT22;43583;53.132;6.574;2023-06-22T14:26:57;23.90;99.90
57753;DHT22;43583;53.132;6.574;2023-06-22T14:29:23;23.80;99.90
57753;DHT22;43583;53.132;6.574;2023-06-22T14:31:49;23.80;99.90
57753;DHT22;43583;53.132;6.574;2023-06-22T14:34:15;23.80;99.90
57753;DHT22;43583;53.132;6.574;2023-06-22T14:36:41;23.80;99.90
57753;DHT22;43583;53.132;6.574;2023-06-22T14:39:08;23.90;99.90
57753;DHT22;43583;53.132;6.574;2023-06-22T14:41:33;23.80;99.90
57753;DHT22;43583;53.132;6.574;2023-06-22T14:43:59;23.80;99.90
57753;DHT22;43583;53.132;6.574;2023-06-22T14:46:24;23.70;99.90
57753;DHT22;43583;53.132;6.574;2023-06-22T14:48:50;23.70;99.90
57753;DHT22;43583;53.132;6.574;2023-06-22T14:51:16;23.60;99.90
57753;DHT22;43583;53.132;6.574;2023-06-22T14:53:43;23.50;99.90
